PWSweather.com
Personal Weather Stations
Station Observations
SPARKSRC
St. Petersburg, FL 33716

St. Petersburg, FL 33716

Lat: 27.876101, Lon: -82.657194

Elevation: 13

Station Type: Zephyr PWS-1000TD

Latest ConditionsUpdated 9:55:02 AM EDT Saturday, Sep 20, 2014
Currently Today's Max Today's Min Today's Average
Temperature 74.5°F23.6°C 74.5°F23.6°C 71.8°F22.1°C 72.2°F22.3°C
Dew Point 74.2°F23.4°C 74.2°F23.4°C 71.5°F21.9°C 72.0°F22.2°C
Winds 6.0 mph NNE9.7 kmh NNE 14.5 mph NE23.3 kmh NE - 5.3 mph 8.5 kmh
Wind Gusts 7.6 mph12.2 kmh 19.7 mph31.7 kmh - -
Humidity 99% 99% 99% 99%
Pressure 29.89 in1012.2 mb 29.92 in1013.2 mb 29.84 in1010.5 mb -
Precipitation - 0.27 in6.9 mm - -
Hour Temp Dew Point Humidity Winds Wind Gusts Pressure Precip Precip Rate Daily Precip Total
09:55 AM 74.5°F23.6°C 74.2°F23.4°C 99% 6.0 mph NNE9.7 kmh NNE 7.6 mph12.2 kmh 29.89 in1012.2 mb 0.00 in0.0 mm 0.00 in/hr0.0 mm/hr 0.27 in6.9 mm
09:50 AM 74.5°F23.6°C 74.2°F23.4°C 99% 4.5 mph N7.2 kmh N 7.6 mph12.2 kmh 29.90 in1012.5 mb 0.00 in0.0 mm 0.00 in/hr0.0 mm/hr 0.27 in6.9 mm
09:45 AM 74.3°F23.5°C 74.1°F23.4°C 99% 4.5 mph N7.2 kmh N 6.9 mph11.1 kmh 29.90 in1012.5 mb 0.00 in0.0 mm 0.00 in/hr0.0 mm/hr 0.27 in6.9 mm
09:40 AM 74.1°F23.4°C 73.9°F23.3°C 99% 3.8 mph N6.1 kmh N 6.0 mph9.7 kmh 29.90 in1012.5 mb 0.00 in0.0 mm 0.00 in/hr0.0 mm/hr 0.27 in6.9 mm
09:35 AM 73.8°F23.2°C 73.5°F23.1°C 99% 3.1 mph N5.0 kmh N 6.0 mph9.7 kmh 29.90 in1012.5 mb 0.00 in0.0 mm 0.00 in/hr0.0 mm/hr 0.27 in6.9 mm
09:30 AM 73.6°F23.1°C 73.3°F22.9°C 99% 3.8 mph N6.1 kmh N 6.9 mph11.1 kmh 29.90 in1012.5 mb 0.00 in0.0 mm 0.00 in/hr0.0 mm/hr 0.27 in6.9 mm
09:25 AM 73.4°F23.0°C 73.2°F22.9°C 99% 3.1 mph N5.0 kmh N 7.6 mph12.2 kmh 29.89 in1012.2 mb 0.00 in0.0 mm 0.00 in/hr0.0 mm/hr 0.27 in6.9 mm
09:20 AM 73.4°F23.0°C 73.2°F22.9°C 99% 5.4 mph N8.7 kmh N 7.6 mph12.2 kmh 29.89 in1012.2 mb 0.00 in0.0 mm 0.00 in/hr0.0 mm/hr 0.27 in6.9 mm
09:15 AM 73.2°F22.9°C 73.0°F22.8°C 99% 3.8 mph N6.1 kmh N 6.0 mph9.7 kmh 29.89 in1012.2 mb 0.00 in0.0 mm 0.00 in/hr0.0 mm/hr 0.27 in6.9 mm
09:10 AM 73.0°F22.8°C 72.8°F22.7°C 99% 2.2 mph N3.5 kmh N 5.4 mph8.7 kmh 29.89 in1012.2 mb 0.00 in0.0 mm 0.00 in/hr0.0 mm/hr 0.27 in6.9 mm
09:05 AM 73.0°F22.8°C 72.8°F22.7°C 99% 2.2 mph N3.5 kmh N 5.4 mph8.7 kmh 29.88 in1011.9 mb 0.00 in0.0 mm 0.00 in/hr0.0 mm/hr 0.27 in6.9 mm
09:00 AM 73.0°F22.8°C 72.8°F22.7°C 99% 2.2 mph NW3.5 kmh NW 5.4 mph8.7 kmh 29.89 in1012.2 mb 0.00 in0.0 mm 0.00 in/hr0.0 mm/hr 0.27 in6.9 mm
08:55 AM 73.0°F22.8°C 72.8°F22.7°C 99% 2.2 mph N3.5 kmh N 5.4 mph8.7 kmh 29.89 in1012.2 mb 0.00 in0.0 mm 0.00 in/hr0.0 mm/hr 0.27 in6.9 mm
08:50 AM 73.0°F22.8°C 72.8°F22.7°C 99% 0.7 mph NE1.1 kmh NE 5.4 mph8.7 kmh 29.88 in1011.9 mb 0.00 in0.0 mm 0.00 in/hr0.0 mm/hr 0.27 in6.9 mm
08:45 AM 72.9°F22.7°C 72.6°F22.6°C 99% 0.7 mph NE1.1 kmh NE 6.0 mph9.7 kmh 29.87 in1011.5 mb 0.00 in0.0 mm 0.00 in/hr0.0 mm/hr 0.27 in6.9 mm
08:40 AM 72.9°F22.7°C 72.6°F22.6°C 99% 2.2 mph NE3.5 kmh NE 6.9 mph11.1 kmh 29.87 in1011.5 mb 0.00 in0.0 mm 0.00 in/hr0.0 mm/hr 0.27 in6.9 mm
08:35 AM 72.9°F22.7°C 72.6°F22.6°C 99% 3.1 mph NE5.0 kmh NE 6.9 mph11.1 kmh 29.86 in1011.2 mb 0.00 in0.0 mm 0.00 in/hr0.0 mm/hr 0.27 in6.9 mm
08:30 AM 72.9°F22.7°C 72.6°F22.6°C 99% 3.1 mph NE5.0 kmh NE 5.4 mph8.7 kmh 29.87 in1011.5 mb 0.00 in0.0 mm 0.00 in/hr0.0 mm/hr 0.27 in6.9 mm
08:25 AM 72.9°F22.7°C 72.6°F22.6°C 99% 2.2 mph NE3.5 kmh NE 5.4 mph8.7 kmh 29.87 in1011.5 mb 0.00 in0.0 mm 0.00 in/hr0.0 mm/hr 0.27 in6.9 mm
08:20 AM 72.7°F22.6°C 72.4°F22.4°C 99% 2.2 mph N3.5 kmh N 5.4 mph8.7 kmh 29.87 in1011.5 mb 0.00 in0.0 mm 0.00 in/hr0.0 mm/hr 0.27 in6.9 mm
08:15 AM 72.5°F22.5°C 72.2°F22.3°C 99% 2.2 mph NNW3.5 kmh NNW 3.8 mph6.1 kmh 29.88 in1011.9 mb 0.00 in0.0 mm 0.00 in/hr0.0 mm/hr 0.27 in6.9 mm
08:10 AM 72.5°F22.5°C 72.2°F22.3°C 99% 0.7 mph N1.1 kmh N 3.8 mph6.1 kmh 29.88 in1011.9 mb 0.00 in0.0 mm 0.00 in/hr0.0 mm/hr 0.27 in6.9 mm
08:05 AM 72.3°F22.4°C 72.1°F22.3°C 99% 1.6 mph NE2.6 kmh NE 3.8 mph6.1 kmh 29.87 in1011.5 mb 0.00 in0.0 mm 0.00 in/hr0.0 mm/hr 0.27 in6.9 mm
08:00 AM 72.3°F22.4°C 72.1°F22.3°C 99% 1.6 mph NE2.6 kmh NE 3.8 mph6.1 kmh 29.87 in1011.5 mb 0.00 in0.0 mm 0.00 in/hr0.0 mm/hr 0.27 in6.9 mm
07:55 AM 72.3°F22.4°C 72.1°F22.3°C 99% 2.2 mph NE3.5 kmh NE 5.4 mph8.7 kmh 29.86 in1011.2 mb 0.00 in0.0 mm 0.00 in/hr0.0 mm/hr 0.27 in6.9 mm
07:50 AM 72.3°F22.4°C 72.1°F22.3°C 99% 2.2 mph NE3.5 kmh NE 5.4 mph8.7 kmh 29.86 in1011.2 mb 0.00 in0.0 mm 0.00 in/hr0.0 mm/hr 0.27 in6.9 mm
07:45 AM 72.3°F22.4°C 72.1°F22.3°C 99% 3.1 mph NE5.0 kmh NE 5.4 mph8.7 kmh 29.88 in1011.9 mb 0.00 in0.0 mm 0.00 in/hr0.0 mm/hr 0.27 in6.9 mm
07:40 AM 72.1°F22.3°C 71.9°F22.2°C 99% 0.7 mph NE1.1 kmh NE 4.5 mph7.2 kmh 29.86 in1011.2 mb 0.00 in0.0 mm 0.00 in/hr0.0 mm/hr 0.27 in6.9 mm
07:35 AM 72.1°F22.3°C 71.9°F22.2°C 99% 1.6 mph NE2.6 kmh NE 4.5 mph7.2 kmh 29.86 in1011.2 mb 0.00 in0.0 mm 0.00 in/hr0.0 mm/hr 0.27 in6.9 mm
07:30 AM 72.1°F22.3°C 71.9°F22.2°C 99% 1.6 mph NE2.6 kmh NE 4.5 mph7.2 kmh 29.87 in1011.5 mb 0.01 in0.3 mm 0.00 in/hr0.0 mm/hr 0.27 in6.9 mm
07:25 AM 72.1°F22.3°C 71.9°F22.2°C 99% 1.6 mph NE2.6 kmh NE 4.5 mph7.2 kmh 29.87 in1011.5 mb 0.02 in0.5 mm 0.00 in/hr0.0 mm/hr 0.27 in6.9 mm
07:20 AM 72.0°F22.2°C 71.7°F22.1°C 99% 1.6 mph NE2.6 kmh NE 4.5 mph7.2 kmh 29.87 in1011.5 mb 0.02 in0.5 mm 0.00 in/hr0.0 mm/hr 0.27 in6.9 mm
07:15 AM 72.0°F22.2°C 71.7°F22.1°C 99% 2.2 mph NE3.5 kmh NE 4.5 mph7.2 kmh 29.86 in1011.2 mb 0.02 in0.5 mm 0.00 in/hr0.0 mm/hr 0.27 in6.9 mm
07:10 AM 72.0°F22.2°C 71.7°F22.1°C 99% 1.6 mph NE2.6 kmh NE 4.5 mph7.2 kmh 29.86 in1011.2 mb 0.02 in0.5 mm 0.00 in/hr0.0 mm/hr 0.27 in6.9 mm
07:05 AM 72.0°F22.2°C 71.7°F22.1°C 99% 2.2 mph NE3.5 kmh NE 5.4 mph8.7 kmh 29.86 in1011.2 mb 0.02 in0.5 mm 0.00 in/hr0.0 mm/hr 0.27 in6.9 mm
07:00 AM 72.0°F22.2°C 71.7°F22.1°C 99% 2.2 mph NE3.5 kmh NE 5.4 mph8.7 kmh 29.86 in1011.2 mb 0.02 in0.5 mm 0.00 in/hr0.0 mm/hr 0.27 in6.9 mm
06:55 AM 72.0°F22.2°C 71.7°F22.1°C 99% 3.1 mph NE5.0 kmh NE 8.3 mph13.4 kmh 29.86 in1011.2 mb 0.02 in0.5 mm 0.00 in/hr0.0 mm/hr 0.27 in6.9 mm
06:50 AM 72.0°F22.2°C 71.7°F22.1°C 99% 2.2 mph NE3.5 kmh NE 8.3 mph13.4 kmh 29.86 in1011.2 mb 0.02 in0.5 mm 0.00 in/hr0.0 mm/hr 0.27 in6.9 mm
06:45 AM 72.0°F22.2°C 71.7°F22.1°C 99% 3.8 mph NE6.1 kmh NE 7.6 mph12.2 kmh 29.86 in1011.2 mb 0.02 in0.5 mm 0.00 in/hr0.0 mm/hr 0.27 in6.9 mm
06:40 AM 72.0°F22.2°C 71.7°F22.1°C 99% 3.8 mph ENE6.1 kmh ENE 8.3 mph13.4 kmh 29.85 in1010.8 mb 0.02 in0.5 mm 0.00 in/hr0.0 mm/hr 0.27 in6.9 mm
06:35 AM 72.0°F22.2°C 71.7°F22.1°C 99% 5.4 mph NE8.7 kmh NE 8.3 mph13.4 kmh 29.85 in1010.8 mb 0.02 in0.5 mm 0.12 in/hr3.0 mm/hr 0.27 in6.9 mm
06:30 AM 72.0°F22.2°C 71.7°F22.1°C 99% 3.8 mph NE6.1 kmh NE 7.6 mph12.2 kmh 29.85 in1010.8 mb 0.01 in0.3 mm 0.12 in/hr3.0 mm/hr 0.26 in6.6 mm
06:25 AM 72.0°F22.2°C 71.7°F22.1°C 99% 3.1 mph NE5.0 kmh NE 7.6 mph12.2 kmh 29.85 in1010.8 mb 0.00 in0.0 mm 0.00 in/hr0.0 mm/hr 0.25 in6.4 mm
06:20 AM 72.0°F22.2°C 71.7°F22.1°C 99% 3.8 mph NE6.1 kmh NE 9.2 mph14.8 kmh 29.85 in1010.8 mb 0.00 in0.0 mm 0.00 in/hr0.0 mm/hr 0.25 in6.4 mm
06:15 AM 72.0°F22.2°C 71.7°F22.1°C 99% 5.4 mph NE8.7 kmh NE 9.2 mph14.8 kmh 29.85 in1010.8 mb 0.00 in0.0 mm 0.00 in/hr0.0 mm/hr 0.25 in6.4 mm
06:10 AM 72.0°F22.2°C 71.7°F22.1°C 99% 6.9 mph NE11.1 kmh NE 9.2 mph14.8 kmh 29.85 in1010.8 mb 0.00 in0.0 mm 0.00 in/hr0.0 mm/hr 0.25 in6.4 mm
06:05 AM 72.0°F22.2°C 71.7°F22.1°C 99% 5.4 mph NE8.7 kmh NE 10.7 mph17.2 kmh 29.85 in1010.8 mb 0.00 in0.0 mm 0.00 in/hr0.0 mm/hr 0.25 in6.4 mm
06:00 AM 72.0°F22.2°C 71.7°F22.1°C 99% 5.4 mph NE8.7 kmh NE 11.4 mph18.3 kmh 29.85 in1010.8 mb 0.00 in0.0 mm 0.00 in/hr0.0 mm/hr 0.25 in6.4 mm
05:55 AM 72.0°F22.2°C 71.7°F22.1°C 99% 5.4 mph NE8.7 kmh NE 11.4 mph18.3 kmh 29.85 in1010.8 mb 0.01 in0.3 mm 0.00 in/hr0.0 mm/hr 0.25 in6.4 mm
05:50 AM 72.0°F22.2°C 71.7°F22.1°C 99% 3.8 mph NE6.1 kmh NE 9.8 mph15.8 kmh 29.85 in1010.8 mb 0.01 in0.3 mm 0.00 in/hr0.0 mm/hr 0.25 in6.4 mm
05:45 AM 72.0°F22.2°C 71.7°F22.1°C 99% 4.5 mph NE7.2 kmh NE 9.8 mph15.8 kmh 29.85 in1010.8 mb 0.01 in0.3 mm 0.00 in/hr0.0 mm/hr 0.25 in6.4 mm
05:40 AM 72.0°F22.2°C 71.7°F22.1°C 99% 6.0 mph NE9.7 kmh NE 10.7 mph17.2 kmh 29.84 in1010.5 mb 0.01 in0.3 mm 0.00 in/hr0.0 mm/hr 0.25 in6.4 mm
05:35 AM 72.0°F22.2°C 71.7°F22.1°C 99% 4.5 mph NE7.2 kmh NE 10.7 mph17.2 kmh 29.85 in1010.8 mb 0.02 in0.5 mm 0.00 in/hr0.0 mm/hr 0.25 in6.4 mm
05:30 AM 72.0°F22.2°C 71.7°F22.1°C 99% 4.5 mph NE7.2 kmh NE 10.7 mph17.2 kmh 29.85 in1010.8 mb 0.02 in0.5 mm 0.00 in/hr0.0 mm/hr 0.25 in6.4 mm
05:25 AM 71.8°F22.1°C 71.5°F21.9°C 99% 3.8 mph NE6.1 kmh NE 9.8 mph15.8 kmh 29.85 in1010.8 mb 0.02 in0.5 mm 0.00 in/hr0.0 mm/hr 0.25 in6.4 mm
05:20 AM 72.0°F22.2°C 71.7°F22.1°C 99% 6.0 mph ENE9.7 kmh ENE 9.8 mph15.8 kmh 29.84 in1010.5 mb 0.02 in0.5 mm 0.00 in/hr0.0 mm/hr 0.25 in6.4 mm
05:15 AM 72.0°F22.2°C 71.7°F22.1°C 99% 4.5 mph NE7.2 kmh NE 7.6 mph12.2 kmh 29.85 in1010.8 mb 0.02 in0.5 mm 0.00 in/hr0.0 mm/hr 0.25 in6.4 mm
05:10 AM 72.0°F22.2°C 71.7°F22.1°C 99% 3.8 mph NE6.1 kmh NE 7.6 mph12.2 kmh 29.85 in1010.8 mb 0.04 in1.0 mm 0.00 in/hr0.0 mm/hr 0.25 in6.4 mm
05:05 AM 71.8°F22.1°C 71.5°F21.9°C 99% 2.2 mph NE3.5 kmh NE 8.3 mph13.4 kmh 29.85 in1010.8 mb 0.04 in1.0 mm 0.00 in/hr0.0 mm/hr 0.25 in6.4 mm
05:00 AM 71.8°F22.1°C 71.5°F21.9°C 99% 2.2 mph NE3.5 kmh NE 9.2 mph14.8 kmh 29.85 in1010.8 mb 0.04 in1.0 mm 0.00 in/hr0.0 mm/hr 0.25 in6.4 mm
04:55 AM 71.8°F22.1°C 71.5°F21.9°C 99% 3.1 mph NE5.0 kmh NE 9.2 mph14.8 kmh 29.84 in1010.5 mb 0.04 in1.0 mm 0.00 in/hr0.0 mm/hr 0.24 in6.1 mm
04:50 AM 71.8°F22.1°C 71.5°F21.9°C 99% 6.0 mph NE9.7 kmh NE 9.2 mph14.8 kmh 29.84 in1010.5 mb 0.04 in1.0 mm 0.00 in/hr0.0 mm/hr 0.24 in6.1 mm
04:45 AM 72.0°F22.2°C 71.7°F22.1°C 99% 5.4 mph NE8.7 kmh NE 11.4 mph18.3 kmh 29.84 in1010.5 mb 0.05 in1.3 mm 0.00 in/hr0.0 mm/hr 0.24 in6.1 mm
04:40 AM 71.8°F22.1°C 71.5°F21.9°C 99% 3.1 mph NE5.0 kmh NE 11.4 mph18.3 kmh 29.85 in1010.8 mb 0.05 in1.3 mm 0.00 in/hr0.0 mm/hr 0.22 in5.6 mm
04:35 AM 72.0°F22.2°C 71.7°F22.1°C 99% 4.5 mph NE7.2 kmh NE 9.2 mph14.8 kmh 29.85 in1010.8 mb 0.06 in1.5 mm 0.00 in/hr0.0 mm/hr 0.22 in5.6 mm
04:30 AM 71.8°F22.1°C 71.5°F21.9°C 99% 4.5 mph NE7.2 kmh NE 13.0 mph20.9 kmh 29.85 in1010.8 mb 0.06 in1.5 mm 0.00 in/hr0.0 mm/hr 0.22 in5.6 mm
04:25 AM 71.8°F22.1°C 71.5°F21.9°C 99% 7.6 mph NE12.2 kmh NE 13.0 mph20.9 kmh 29.85 in1010.8 mb 0.07 in1.8 mm 0.00 in/hr0.0 mm/hr 0.22 in5.6 mm
04:20 AM 71.8°F22.1°C 71.5°F21.9°C 99% 6.0 mph NE9.7 kmh NE 11.4 mph18.3 kmh 29.85 in1010.8 mb 0.07 in1.8 mm 0.00 in/hr0.0 mm/hr 0.22 in5.6 mm
04:15 AM 71.8°F22.1°C 71.5°F21.9°C 99% 6.0 mph ENE9.7 kmh ENE 13.0 mph20.9 kmh 29.85 in1010.8 mb 0.07 in1.8 mm 0.00 in/hr0.0 mm/hr 0.22 in5.6 mm
04:10 AM 71.8°F22.1°C 71.5°F21.9°C 99% 5.4 mph E8.7 kmh E 13.0 mph20.9 kmh 29.85 in1010.8 mb 0.07 in1.8 mm 0.00 in/hr0.0 mm/hr 0.21 in5.3 mm
04:05 AM 72.0°F22.2°C 71.7°F22.1°C 99% 7.6 mph E12.2 kmh E 13.0 mph20.9 kmh 29.84 in1010.5 mb 0.08 in2.0 mm 0.00 in/hr0.0 mm/hr 0.21 in5.3 mm
04:00 AM 72.0°F22.2°C 71.7°F22.1°C 99% 7.6 mph NE12.2 kmh NE 13.0 mph20.9 kmh 29.84 in1010.5 mb 0.08 in2.0 mm 0.00 in/hr0.0 mm/hr 0.21 in5.3 mm
03:55 AM 72.0°F22.2°C 71.7°F22.1°C 99% 9.2 mph NE14.8 kmh NE 13.6 mph21.9 kmh 29.85 in1010.8 mb 0.08 in2.0 mm 0.00 in/hr0.0 mm/hr 0.20 in5.1 mm
03:50 AM 71.8°F22.1°C 71.5°F21.9°C 99% 4.5 mph NE7.2 kmh NE 13.6 mph21.9 kmh 29.85 in1010.8 mb 0.09 in2.3 mm 0.12 in/hr3.0 mm/hr 0.20 in5.1 mm
03:45 AM 71.8°F22.1°C 71.5°F21.9°C 99% 5.4 mph NE8.7 kmh NE 12.1 mph19.5 kmh 29.85 in1010.8 mb 0.08 in2.0 mm 0.00 in/hr0.0 mm/hr 0.19 in4.8 mm
03:40 AM 71.8°F22.1°C 71.5°F21.9°C 99% 6.9 mph ENE11.1 kmh ENE 14.5 mph23.3 kmh 29.85 in1010.8 mb 0.08 in2.0 mm 0.12 in/hr3.0 mm/hr 0.18 in4.6 mm
03:35 AM 71.8°F22.1°C 71.5°F21.9°C 99% 9.2 mph ENE14.8 kmh ENE 15.9 mph25.6 kmh 29.85 in1010.8 mb 0.07 in1.8 mm 0.00 in/hr0.0 mm/hr 0.17 in4.3 mm
03:30 AM 72.0°F22.2°C 71.7°F22.1°C 99% 8.3 mph ENE13.4 kmh ENE 15.9 mph25.6 kmh 29.86 in1011.2 mb 0.08 in2.0 mm 0.12 in/hr3.0 mm/hr 0.17 in4.3 mm
03:25 AM 72.0°F22.2°C 71.7°F22.1°C 99% 5.4 mph NE8.7 kmh NE 15.9 mph25.6 kmh 29.85 in1010.8 mb 0.07 in1.8 mm 0.00 in/hr0.0 mm/hr 0.15 in3.8 mm
03:20 AM 72.0°F22.2°C 71.7°F22.1°C 99% 9.8 mph NE15.8 kmh NE 15.9 mph25.6 kmh 29.85 in1010.8 mb 0.08 in2.0 mm 0.00 in/hr0.0 mm/hr 0.15 in3.8 mm
03:15 AM 72.1°F22.3°C 71.9°F22.2°C 99% 10.7 mph NE17.2 kmh NE 16.8 mph27.0 kmh 29.85 in1010.8 mb 0.09 in2.3 mm 0.12 in/hr3.0 mm/hr 0.15 in3.8 mm
03:10 AM 72.1°F22.3°C 71.9°F22.2°C 99% 5.4 mph NE8.7 kmh NE 16.8 mph27.0 kmh 29.86 in1011.2 mb 0.08 in2.0 mm 0.12 in/hr3.0 mm/hr 0.14 in3.6 mm
03:05 AM 72.1°F22.3°C 71.9°F22.2°C 99% 8.3 mph NE13.4 kmh NE 17.4 mph28.0 kmh 29.86 in1011.2 mb 0.07 in1.8 mm 0.12 in/hr3.0 mm/hr 0.13 in3.3 mm
03:00 AM 72.0°F22.2°C 71.7°F22.1°C 99% 7.6 mph ENE12.2 kmh ENE 17.4 mph28.0 kmh 29.86 in1011.2 mb 0.06 in1.5 mm 0.00 in/hr0.0 mm/hr 0.12 in3.0 mm
02:55 AM 72.1°F22.3°C 71.9°F22.2°C 99% 8.3 mph E13.4 kmh E 14.5 mph23.3 kmh 29.86 in1011.2 mb 0.06 in1.5 mm 0.00 in/hr0.0 mm/hr 0.12 in3.0 mm
02:50 AM 72.1°F22.3°C 71.9°F22.2°C 99% 7.6 mph E12.2 kmh E 14.5 mph23.3 kmh 29.86 in1011.2 mb 0.06 in1.5 mm 0.00 in/hr0.0 mm/hr 0.11 in2.8 mm
02:45 AM 72.1°F22.3°C 71.9°F22.2°C 99% 7.6 mph NE12.2 kmh NE 14.5 mph23.3 kmh 29.87 in1011.5 mb 0.06 in1.5 mm 0.12 in/hr3.0 mm/hr 0.11 in2.8 mm
02:40 AM 72.1°F22.3°C 71.9°F22.2°C 99% 7.6 mph NE12.2 kmh NE 13.0 mph20.9 kmh 29.87 in1011.5 mb 0.05 in1.3 mm 0.00 in/hr0.0 mm/hr 0.09 in2.3 mm
02:35 AM 72.3°F22.4°C 72.1°F22.3°C 99% 7.6 mph NE12.2 kmh NE 14.5 mph23.3 kmh 29.87 in1011.5 mb 0.05 in1.3 mm 0.12 in/hr3.0 mm/hr 0.09 in2.3 mm
02:30 AM 72.3°F22.4°C 72.1°F22.3°C 99% 7.6 mph NE12.2 kmh NE 14.5 mph23.3 kmh 29.87 in1011.5 mb 0.04 in1.0 mm 0.00 in/hr0.0 mm/hr 0.08 in2.0 mm
02:25 AM 72.1°F22.3°C 71.9°F22.2°C 99% 7.6 mph NE12.2 kmh NE 14.5 mph23.3 kmh 29.87 in1011.5 mb 0.04 in1.0 mm 0.24 in/hr6.1 mm/hr 0.08 in2.0 mm
02:20 AM 72.3°F22.4°C 72.1°F22.3°C 99% 10.7 mph ENE17.2 kmh ENE 14.5 mph23.3 kmh 29.87 in1011.5 mb 0.02 in0.5 mm 0.00 in/hr0.0 mm/hr 0.07 in1.8 mm
02:15 AM 72.3°F22.4°C 72.1°F22.3°C 99% 5.4 mph ENE8.7 kmh ENE 13.6 mph21.9 kmh 29.88 in1011.9 mb 0.02 in0.5 mm 0.00 in/hr0.0 mm/hr 0.06 in1.5 mm
02:10 AM 72.1°F22.3°C 71.9°F22.2°C 99% 5.4 mph ENE8.7 kmh ENE 13.6 mph21.9 kmh 29.88 in1011.9 mb 0.02 in0.5 mm 0.00 in/hr0.0 mm/hr 0.06 in1.5 mm
02:05 AM 72.1°F22.3°C 71.9°F22.2°C 99% 9.2 mph ENE14.8 kmh ENE 16.8 mph27.0 kmh 29.88 in1011.9 mb 0.02 in0.5 mm 0.00 in/hr0.0 mm/hr 0.06 in1.5 mm
02:00 AM 72.1°F22.3°C 71.9°F22.2°C 99% 9.2 mph NE14.8 kmh NE 16.8 mph27.0 kmh 29.88 in1011.9 mb 0.02 in0.5 mm 0.00 in/hr0.0 mm/hr 0.06 in1.5 mm
01:55 AM 72.1°F22.3°C 71.9°F22.2°C 99% 12.1 mph NE19.5 kmh NE 16.8 mph27.0 kmh 29.88 in1011.9 mb 0.02 in0.5 mm 0.12 in/hr3.0 mm/hr 0.06 in1.5 mm
01:50 AM 72.1°F22.3°C 71.9°F22.2°C 99% 8.3 mph NE13.4 kmh NE 19.0 mph30.6 kmh 29.88 in1011.9 mb 0.01 in0.3 mm 0.00 in/hr0.0 mm/hr 0.05 in1.3 mm
01:45 AM 72.1°F22.3°C 71.9°F22.2°C 99% 9.2 mph NE14.8 kmh NE 19.0 mph30.6 kmh 29.88 in1011.9 mb 0.02 in0.5 mm 0.00 in/hr0.0 mm/hr 0.05 in1.3 mm
01:40 AM 72.1°F22.3°C 71.9°F22.2°C 99% 14.5 mph NE23.3 kmh NE 19.0 mph30.6 kmh 29.89 in1012.2 mb 0.02 in0.5 mm 0.00 in/hr0.0 mm/hr 0.05 in1.3 mm
01:35 AM 72.1°F22.3°C 71.9°F22.2°C 99% 6.9 mph NE11.1 kmh NE 19.7 mph31.7 kmh 29.89 in1012.2 mb 0.02 in0.5 mm 0.00 in/hr0.0 mm/hr 0.05 in1.3 mm
01:30 AM 72.0°F22.2°C 71.7°F22.1°C 99% 10.7 mph ENE17.2 kmh ENE 19.7 mph31.7 kmh 29.89 in1012.2 mb 0.04 in1.0 mm 0.00 in/hr0.0 mm/hr 0.05 in1.3 mm
01:25 AM 72.0°F22.2°C 71.7°F22.1°C 99% 6.9 mph E11.1 kmh E 14.5 mph23.3 kmh 29.89 in1012.2 mb 0.04 in1.0 mm 0.00 in/hr0.0 mm/hr 0.05 in1.3 mm
01:20 AM 72.1°F22.3°C 71.9°F22.2°C 99% 9.8 mph E15.8 kmh E 13.6 mph21.9 kmh 29.89 in1012.2 mb 0.04 in1.0 mm 0.24 in/hr6.1 mm/hr 0.05 in1.3 mm
01:15 AM 72.0°F22.2°C 71.7°F22.1°C 99% 8.3 mph NE13.4 kmh NE 13.6 mph21.9 kmh 29.89 in1012.2 mb 0.02 in0.5 mm 0.00 in/hr0.0 mm/hr 0.04 in1.0 mm
01:10 AM 72.1°F22.3°C 71.9°F22.2°C 99% 6.9 mph NE11.1 kmh NE 13.0 mph20.9 kmh 29.90 in1012.5 mb 0.02 in0.5 mm 0.00 in/hr0.0 mm/hr 0.04 in1.0 mm
01:05 AM 72.1°F22.3°C 71.9°F22.2°C 99% 9.2 mph NE14.8 kmh NE 15.9 mph25.6 kmh 29.90 in1012.5 mb 0.04 in1.0 mm 0.00 in/hr0.0 mm/hr 0.04 in1.0 mm
01:00 AM 72.1°F22.3°C 71.9°F22.2°C 99% 9.2 mph ENE14.8 kmh ENE 15.9 mph25.6 kmh 29.90 in1012.5 mb 0.04 in1.0 mm 0.00 in/hr0.0 mm/hr 0.04 in1.0 mm
12:55 AM 72.0°F22.2°C 71.7°F22.1°C 99% 6.0 mph E9.7 kmh E 13.6 mph21.9 kmh 29.90 in1012.5 mb 0.04 in1.0 mm 0.00 in/hr0.0 mm/hr 0.04 in1.0 mm
12:50 AM 72.0°F22.2°C 71.7°F22.1°C 99% 10.7 mph ENE17.2 kmh ENE 13.6 mph21.9 kmh 29.90 in1012.5 mb 0.05 in1.3 mm 0.12 in/hr3.0 mm/hr 0.04 in1.0 mm
12:45 AM 72.0°F22.2°C 71.7°F22.1°C 99% 5.4 mph ENE8.7 kmh ENE 13.6 mph21.9 kmh 29.90 in1012.5 mb 0.04 in1.0 mm 0.00 in/hr0.0 mm/hr 0.02 in0.5 mm
12:40 AM 72.0°F22.2°C 71.7°F22.1°C 99% 6.0 mph NE9.7 kmh NE 14.5 mph23.3 kmh 29.90 in1012.5 mb 0.05 in1.3 mm 0.00 in/hr0.0 mm/hr 0.02 in0.5 mm
12:35 AM 71.8°F22.1°C 71.5°F21.9°C 99% 8.3 mph NE13.4 kmh NE 15.9 mph25.6 kmh 29.91 in1012.9 mb 0.08 in2.0 mm 0.00 in/hr0.0 mm/hr 0.02 in0.5 mm
12:30 AM 72.0°F22.2°C 71.7°F22.1°C 99% 8.3 mph NE13.4 kmh NE 15.9 mph25.6 kmh 29.91 in1012.9 mb 0.09 in2.3 mm 0.00 in/hr0.0 mm/hr 0.01 in0.3 mm
12:25 AM 71.8°F22.1°C 71.5°F21.9°C 99% 6.9 mph NE11.1 kmh NE 13.0 mph20.9 kmh 29.91 in1012.9 mb 0.11 in2.8 mm 0.00 in/hr0.0 mm/hr 0.01 in0.3 mm
12:20 AM 72.0°F22.2°C 71.7°F22.1°C 99% 7.6 mph NE12.2 kmh NE 12.1 mph19.5 kmh 29.91 in1012.9 mb 0.11 in2.8 mm 0.00 in/hr0.0 mm/hr 0.01 in0.3 mm
12:15 AM 72.0°F22.2°C 71.7°F22.1°C 99% 5.4 mph NE8.7 kmh NE 9.8 mph15.8 kmh 29.91 in1012.9 mb 0.12 in3.0 mm 0.00 in/hr0.0 mm/hr 0.01 in0.3 mm
12:10 AM 72.0°F22.2°C 71.7°F22.1°C 99% 3.8 mph NE6.1 kmh NE 9.8 mph15.8 kmh 29.92 in1013.2 mb 0.12 in3.0 mm 0.12 in/hr3.0 mm/hr 0.01 in0.3 mm
12:05 AM 71.8°F22.1°C 71.5°F21.9°C 99% 3.8 mph NE6.1 kmh NE 7.6 mph12.2 kmh 29.92 in1013.2 mb 0.11 in2.8 mm 0.00 in/hr0.0 mm/hr 0.12 in3.0 mm
12:00 AM 71.8°F22.1°C 71.5°F21.9°C 99% 3.8 mph NE6.1 kmh NE 9.8 mph15.8 kmh 29.92 in1013.2 mb 0.12 in3.0 mm 0.00 in/hr0.0 mm/hr 1.23 in31.2 mm